Kezdőlap
METAR-TAF:

METAR-TAF

Repülőterek :

Sparta, Wisconsin, Amerikai Egyesült Államok

földrajzi szélesség: 43-57-30N, földrajzi hosszúság: 090-44-16W, magasság: 255 m

Jelenlegi meteorológiai megfigyelések

A jelentés 29 perccel ezelõtt készült, 22:15 UTC
Dél-délnyugati szél 5 kt
Hőmérséklet 7°C
Páratartalom 57%
Légköri nyomás 1015 hPa
Látótávolság: 16.1 km
Derült ég

METAR: KCMY 222215Z AUTO 20005KT 10SM CLR 07/M01 A2998 RMK AO2 T00651015

Idő: 16:44 (22:44 UTC)


TAF: hiányzik

Meteorológiai megfigyelések és előrejelzések több, mint 4000 repülőtéren (METAR és TAF jelentéseket).

A térképen piros és sárga pontok jelzik az elérhető meteorológiai állomásokat.

Mozgassa az egeret a pont fölött, hogy megjelenjen az állomás neve.

Azután kattintson az időjárási megfigyelések és előrejelzések megtekintéséhez.

A térkép megváltoztatása: kattintson a fekete keresztel jelölt zöld gombra ráközelítéshez, a vonallal jelölt zöld gombra távolításhoz, vagy a zöld nyilakra a szomszédos térképek eléréséhez.


METAR-TAF: